createdAt,value
2018-10-17T00:00:17.363Z,25.05
2018-10-17T00:02:44.566Z,23.60
2018-10-17T00:05:11.831Z,24.12
2018-10-17T00:07:39.199Z,23.45
2018-10-17T00:10:06.843Z,23.62
2018-10-17T00:12:34.163Z,23.50
2018-10-17T00:15:01.364Z,23.15
2018-10-17T00:17:28.555Z,23.25
2018-10-17T00:19:55.759Z,22.30
2018-10-17T00:22:22.955Z,22.90
2018-10-17T00:24:50.172Z,24.12
2018-10-17T00:27:17.471Z,22.73
2018-10-17T00:29:44.662Z,22.75
2018-10-17T00:32:11.861Z,23.10
2018-10-17T00:34:39.054Z,24.47
2018-10-17T00:37:06.346Z,20.92
2018-10-17T00:39:33.492Z,24.87
2018-10-17T00:42:00.691Z,22.90
2018-10-17T00:44:28.064Z,20.50
2018-10-17T00:46:55.310Z,19.67
2018-10-17T00:49:22.502Z,20.82
2018-10-17T00:51:49.692Z,21.87
2018-10-17T00:54:16.886Z,21.50
2018-10-17T00:56:44.078Z,22.82
2018-10-17T00:59:16.202Z,22.35
2018-10-17T01:01:43.322Z,20.57
2018-10-17T01:04:10.708Z,20.52
2018-10-17T01:06:38.467Z,22.62
2018-10-17T01:09:09.525Z,20.20
2018-10-17T01:11:37.284Z,20.57
2018-10-17T01:14:04.743Z,21.40
2018-10-17T01:16:31.935Z,21.40
2018-10-17T01:18:59.346Z,21.97
2018-10-17T01:21:26.810Z,21.77
2018-10-17T01:23:54.006Z,23.50
2018-10-17T01:26:21.293Z,23.40
2018-10-17T01:28:48.524Z,23.25
2018-10-17T01:31:15.833Z,23.32
2018-10-17T01:33:42.976Z,24.70
2018-10-17T01:36:10.188Z,25.48
2018-10-17T01:38:37.367Z,26.05
2018-10-17T01:41:04.891Z,23.92
2018-10-17T01:43:32.123Z,26.50
2018-10-17T01:45:59.722Z,24.57
2018-10-17T01:48:27.090Z,23.80
2018-10-17T01:50:54.313Z,25.15
2018-10-17T01:53:21.496Z,24.63
2018-10-17T01:55:48.704Z,23.80
2018-10-17T01:58:15.915Z,24.65
2018-10-17T02:00:43.091Z,26.07
2018-10-17T02:03:10.293Z,22.55
2018-10-17T02:05:37.497Z,25.45
2018-10-17T02:08:04.746Z,27.87
2018-10-17T02:10:32.060Z,27.10
2018-10-17T02:12:59.354Z,25.72
2018-10-17T02:15:26.510Z,24.05
2018-10-17T02:17:53.709Z,23.90
2018-10-17T02:20:21.110Z,23.75
2018-10-17T02:22:48.289Z,24.63
2018-10-17T02:25:15.565Z,25.65
2018-10-17T02:27:42.706Z,23.42
2018-10-17T02:30:09.940Z,23.55
2018-10-17T02:32:37.109Z,24.52
2018-10-17T02:35:09.724Z,23.00
2018-10-17T02:37:36.882Z,23.67
2018-10-17T02:40:04.065Z,24.92
2018-10-17T02:42:31.297Z,21.93
2018-10-17T02:44:58.548Z,22.73
2018-10-17T02:47:25.742Z,21.27
2018-10-17T02:49:52.935Z,22.75
2018-10-17T02:52:20.118Z,21.20
2018-10-17T02:54:47.307Z,21.68
2018-10-17T02:57:14.495Z,22.35
2018-10-17T02:59:41.691Z,21.17
2018-10-17T03:02:08.880Z,21.48
2018-10-17T03:04:36.070Z,22.60
2018-10-17T03:07:03.369Z,22.87
2018-10-17T03:09:30.529Z,25.17
2018-10-17T03:11:57.712Z,22.67
2018-10-17T03:14:24.962Z,26.80
2018-10-17T03:16:52.170Z,26.25
2018-10-17T03:19:19.377Z,26.68
2018-10-17T03:21:46.592Z,27.73
2018-10-17T03:24:13.783Z,27.25
2018-10-17T03:26:41.017Z,28.30
2018-10-17T03:29:08.467Z,29.25
2018-10-17T03:31:35.746Z,30.57
2018-10-17T03:34:02.843Z,28.10
2018-10-17T03:36:30.027Z,28.10
2018-10-17T03:38:57.255Z,30.05
2018-10-17T03:41:24.452Z,28.57
2018-10-17T03:43:51.638Z,30.05
2018-10-17T03:46:18.828Z,28.47
2018-10-17T03:48:46.060Z,29.27
2018-10-17T03:51:13.264Z,35.08
2018-10-17T03:53:40.492Z,31.20
2018-10-17T03:56:07.688Z,30.37
2018-10-17T03:58:34.864Z,32.60
2018-10-17T04:01:02.149Z,30.75
2018-10-17T04:03:29.367Z,28.67
2018-10-17T04:05:56.643Z,27.58
2018-10-17T04:08:23.833Z,25.95
2018-10-17T04:10:51.077Z,26.90
2018-10-17T04:13:18.288Z,27.95
2018-10-17T04:15:45.437Z,26.37
2018-10-17T04:18:12.641Z,24.98
2018-10-17T04:20:39.862Z,25.48
2018-10-17T04:23:07.179Z,25.90
2018-10-17T04:25:34.308Z,24.10
2018-10-17T04:28:01.576Z,25.23
2018-10-17T04:30:28.771Z,25.00
2018-10-17T04:32:56.007Z,24.80
2018-10-17T04:35:23.194Z,25.10
2018-10-17T04:37:50.407Z,24.77
2018-10-17T04:40:17.593Z,25.97
2018-10-17T04:42:44.806Z,25.08
2018-10-17T04:45:12.063Z,23.98
2018-10-17T04:47:39.325Z,24.87
2018-10-17T04:50:07.037Z,24.50
2018-10-17T04:52:34.234Z,25.50
2018-10-17T04:55:01.849Z,25.35
2018-10-17T04:57:29.013Z,25.02
2018-10-17T04:59:56.295Z,26.73
2018-10-17T05:02:23.494Z,30.60
2018-10-17T05:04:50.669Z,29.12
2018-10-17T05:07:17.908Z,29.07
2018-10-17T05:09:45.100Z,29.07
2018-10-17T05:12:12.351Z,28.42
2018-10-17T05:14:39.568Z,25.97
2018-10-17T05:17:06.806Z,31.00
2018-10-17T05:19:33.973Z,27.50
2018-10-17T05:22:01.157Z,29.77
2018-10-17T05:24:28.371Z,28.35
2018-10-17T05:26:55.563Z,26.20
2018-10-17T05:29:22.775Z,28.15
2018-10-17T05:31:49.975Z,28.47
2018-10-17T05:34:17.166Z,26.57
2018-10-17T05:36:44.363Z,26.80
2018-10-17T05:39:11.559Z,26.82
2018-10-17T05:41:38.739Z,25.85
2018-10-17T05:44:05.919Z,24.55
2018-10-17T05:46:33.118Z,25.48
2018-10-17T05:49:00.394Z,24.55
2018-10-17T05:51:27.545Z,26.40
2018-10-17T05:53:54.767Z,25.15
2018-10-17T05:56:21.969Z,25.05
2018-10-17T05:58:49.220Z,25.02
2018-10-17T06:01:16.614Z,24.57
2018-10-17T06:03:43.741Z,23.83
2018-10-17T06:06:17.880Z,23.75
2018-10-17T06:08:45.258Z,24.43
2018-10-17T06:11:12.514Z,25.85
2018-10-17T06:13:39.660Z,26.57
2018-10-17T06:16:06.952Z,26.17
2018-10-17T06:18:34.138Z,25.92
2018-10-17T06:21:01.337Z,26.12
2018-10-17T06:23:28.524Z,24.87
2018-10-17T06:25:55.727Z,27.50
2018-10-17T06:28:23.903Z,26.85
2018-10-17T06:30:51.054Z,29.32
2018-10-17T06:33:18.218Z,26.02
2018-10-17T06:35:45.411Z,26.73
2018-10-17T06:38:12.607Z,25.48
2018-10-17T06:40:39.814Z,25.10
2018-10-17T06:43:07.005Z,27.55
2018-10-17T06:45:34.203Z,26.10
2018-10-17T06:48:01.404Z,26.93
2018-10-17T06:50:28.616Z,27.42
2018-10-17T06:52:55.876Z,25.95
2018-10-17T06:55:23.094Z,25.10
2018-10-17T06:57:50.322Z,25.80
2018-10-17T07:00:17.556Z,27.00
2018-10-17T07:02:44.727Z,27.90
2018-10-17T07:05:11.975Z,25.50
2018-10-17T07:07:39.404Z,24.63
2018-10-17T07:10:06.604Z,25.00
2018-10-17T07:12:33.795Z,26.90
2018-10-17T07:15:01.012Z,24.40
2018-10-17T07:17:28.221Z,25.40
2018-10-17T07:19:55.459Z,27.15
2018-10-17T07:22:22.659Z,26.33
2018-10-17T07:24:49.856Z,25.00
2018-10-17T07:27:17.042Z,25.05
2018-10-17T07:29:44.401Z,25.30
2018-10-17T07:32:11.450Z,25.97
2018-10-17T07:34:38.719Z,25.48
2018-10-17T07:37:06.132Z,26.52
2018-10-17T07:39:33.344Z,25.27
2018-10-17T07:42:00.594Z,24.35
2018-10-17T07:44:28.079Z,26.17
2018-10-17T07:46:55.388Z,22.67
2018-10-17T07:49:22.581Z,26.77
2018-10-17T07:51:49.776Z,25.30
2018-10-17T07:54:17.065Z,25.23
2018-10-17T07:56:44.214Z,24.35
2018-10-17T07:59:11.400Z,26.25
2018-10-17T08:01:38.589Z,23.92
2018-10-17T08:04:06.006Z,22.40
2018-10-17T08:06:33.282Z,24.95
2018-10-17T08:09:00.459Z,26.05
2018-10-17T08:11:27.672Z,25.57
2018-10-17T08:13:54.933Z,26.30
2018-10-17T08:16:22.099Z,24.90
2018-10-17T08:18:49.304Z,25.97
2018-10-17T08:21:16.593Z,22.67
2018-10-17T08:23:43.758Z,22.65
2018-10-17T08:26:10.947Z,22.15
2018-10-17T08:28:38.160Z,21.37
2018-10-17T08:31:05.364Z,24.50
2018-10-17T08:33:32.559Z,23.20
2018-10-17T08:35:59.864Z,22.67
2018-10-17T08:38:26.970Z,22.85
2018-10-17T08:40:54.176Z,21.50
2018-10-17T08:43:21.383Z,23.80
2018-10-17T08:45:48.586Z,21.80
2018-10-17T08:48:15.770Z,24.40
2018-10-17T08:50:43.046Z,22.73
2018-10-17T08:53:10.275Z,21.70
2018-10-17T08:55:37.454Z,22.85
2018-10-17T08:58:04.664Z,22.25
2018-10-17T09:00:31.841Z,21.42
2018-10-17T09:02:59.039Z,25.60
2018-10-17T09:05:26.329Z,23.22
2018-10-17T09:07:53.614Z,24.25
2018-10-17T09:10:20.719Z,23.65
2018-10-17T09:12:47.924Z,24.72
2018-10-17T09:15:15.234Z,23.38
2018-10-17T09:17:42.589Z,22.80
2018-10-17T09:20:10.504Z,25.75
2018-10-17T09:22:37.523Z,22.32
2018-10-17T09:25:04.973Z,22.55
2018-10-17T09:27:32.211Z,24.05
2018-10-17T09:29:59.450Z,22.87
2018-10-17T09:32:26.591Z,23.52
2018-10-17T09:34:53.850Z,22.75
2018-10-17T09:37:21.056Z,22.93
2018-10-17T09:39:48.230Z,22.70
2018-10-17T09:42:15.512Z,23.05
2018-10-17T09:44:42.646Z,23.30
2018-10-17T09:47:09.839Z,23.40
2018-10-17T09:49:37.033Z,23.07
2018-10-17T09:52:04.630Z,23.73
2018-10-17T09:54:31.792Z,21.62
2018-10-17T09:56:59.041Z,24.32
2018-10-17T09:59:26.268Z,22.58
2018-10-17T10:01:53.948Z,23.65
2018-10-17T10:04:21.555Z,23.87
2018-10-17T10:06:49.032Z,23.95
2018-10-17T10:09:16.223Z,23.10
2018-10-17T10:11:43.396Z,23.90
2018-10-17T10:14:10.598Z,24.40
2018-10-17T10:16:37.800Z,22.62
2018-10-17T10:19:05.388Z,23.98
2018-10-17T10:21:32.640Z,23.07
2018-10-17T10:24:00.367Z,23.92
2018-10-17T10:26:27.503Z,24.43
2018-10-17T10:28:54.698Z,23.85
2018-10-17T10:31:21.882Z,23.15
2018-10-17T10:33:49.073Z,24.87
2018-10-17T10:36:16.387Z,23.70
2018-10-17T10:38:43.515Z,23.87
2018-10-17T10:41:10.727Z,25.40
2018-10-17T10:43:38.009Z,24.85
2018-10-17T10:46:05.662Z,24.90
2018-10-17T10:48:32.899Z,23.45
2018-10-17T10:51:00.091Z,25.70
2018-10-17T10:53:27.368Z,24.90
2018-10-17T10:55:54.613Z,23.65
2018-10-17T10:58:21.858Z,24.92
2018-10-17T11:00:48.983Z,24.65
2018-10-17T11:03:16.225Z,23.62
2018-10-17T11:05:43.604Z,22.55
2018-10-17T11:08:10.662Z,24.00
2018-10-17T11:10:37.803Z,25.80
2018-10-17T11:13:05.543Z,24.37
2018-10-17T11:15:32.743Z,25.88
2018-10-17T11:17:59.909Z,26.05
2018-10-17T11:20:27.095Z,24.23
2018-10-17T11:22:54.318Z,21.62
2018-10-17T11:25:21.502Z,23.35
2018-10-17T11:27:48.687Z,22.32
2018-10-17T11:30:15.883Z,23.45
2018-10-17T11:32:43.096Z,24.67
2018-10-17T11:35:10.635Z,26.07
2018-10-17T11:37:38.370Z,23.85
2018-10-17T11:40:05.531Z,22.27
2018-10-17T11:42:32.875Z,25.00
2018-10-17T11:45:00.548Z,22.58
2018-10-17T11:47:27.864Z,21.97
2018-10-17T11:49:55.132Z,22.50
2018-10-17T11:52:22.334Z,21.37
2018-10-17T11:54:49.506Z,22.05
2018-10-17T11:57:16.807Z,21.82
2018-10-17T11:59:44.023Z,22.58
2018-10-17T12:02:11.227Z,21.75
2018-10-17T12:04:38.543Z,21.45
2018-10-17T12:07:05.655Z,22.75
2018-10-17T12:09:32.905Z,24.90
2018-10-17T12:12:00.248Z,24.60
2018-10-17T12:14:28.510Z,21.53
2018-10-17T12:16:55.723Z,20.17
2018-10-17T12:19:22.929Z,20.63
2018-10-17T12:21:50.953Z,21.57
2018-10-17T12:24:18.767Z,20.27
2018-10-17T12:26:45.876Z,17.17
2018-10-17T12:29:13.067Z,20.67
2018-10-17T12:31:40.266Z,19.50
2018-10-17T12:34:08.004Z,19.70
2018-10-17T12:36:35.230Z,22.20
2018-10-17T12:39:02.533Z,20.47
2018-10-17T12:41:29.785Z,20.77
2018-10-17T12:43:56.959Z,18.87
2018-10-17T12:46:24.136Z,20.20
2018-10-17T12:48:51.776Z,20.50
2018-10-17T12:51:18.981Z,19.27
2018-10-17T12:53:46.192Z,18.40
2018-10-17T12:56:13.454Z,17.83
2018-10-17T12:58:40.718Z,18.17
2018-10-17T13:01:07.974Z,16.07
2018-10-17T13:03:35.115Z,16.00
2018-10-17T13:06:02.492Z,16.10
2018-10-17T13:08:29.715Z,16.53
2018-10-17T13:10:56.938Z,17.17
2018-10-17T13:13:30.762Z,18.00
2018-10-17T13:15:57.969Z,18.30
2018-10-17T13:18:25.147Z,19.50
2018-10-17T13:20:52.370Z,16.37
2018-10-17T13:23:19.549Z,16.87
2018-10-17T13:25:46.735Z,24.10
2018-10-17T13:28:13.934Z,16.80
2018-10-17T13:30:41.293Z,16.10
2018-10-17T13:33:08.485Z,14.57
2018-10-17T13:35:35.716Z,13.43
2018-10-17T13:38:02.955Z,15.47
2018-10-17T13:40:30.166Z,15.97
2018-10-17T13:42:57.447Z,15.40
2018-10-17T13:45:24.607Z,15.50
2018-10-17T13:47:51.821Z,15.73
2018-10-17T13:50:19.056Z,14.30
2018-10-17T13:52:46.271Z,14.73
2018-10-17T13:55:13.532Z,16.30
2018-10-17T13:57:40.723Z,15.07
2018-10-17T14:00:10.588Z,13.20
2018-10-17T14:02:37.789Z,15.13
2018-10-17T14:05:05.451Z,13.83
2018-10-17T14:07:32.665Z,12.57
2018-10-17T14:09:59.884Z,13.73
2018-10-17T14:12:27.096Z,14.03
2018-10-17T14:14:54.445Z,12.63
2018-10-17T14:17:21.654Z,10.67
2018-10-17T14:19:48.852Z,12.00
2018-10-17T14:22:16.074Z,15.10
2018-10-17T14:24:43.280Z,12.03
2018-10-17T14:27:10.508Z,16.47
2018-10-17T14:29:37.845Z,12.33
2018-10-17T14:32:05.456Z,11.97
2018-10-17T14:34:32.647Z,12.27
2018-10-17T14:36:59.861Z,11.40
2018-10-17T14:39:27.179Z,12.50
2018-10-17T14:41:54.326Z,12.17
2018-10-17T14:44:21.566Z,11.07
2018-10-17T14:46:48.760Z,10.30
2018-10-17T14:49:15.967Z,11.70
2018-10-17T14:51:43.150Z,14.07
2018-10-17T14:54:10.344Z,11.27
2018-10-17T14:56:37.560Z,11.70
2018-10-17T14:59:04.918Z,11.73
2018-10-17T15:01:32.103Z,12.33
2018-10-17T15:03:59.305Z,12.57
2018-10-17T15:06:26.524Z,11.90
2018-10-17T15:08:53.725Z,12.33
2018-10-17T15:11:21.101Z,11.10
2018-10-17T15:13:48.136Z,11.70
2018-10-17T15:16:15.336Z,13.20
2018-10-17T15:18:42.538Z,11.93
2018-10-17T15:21:09.810Z,10.97
2018-10-17T15:23:36.971Z,10.80
2018-10-17T15:26:04.233Z,11.70
2018-10-17T15:28:31.495Z,11.80
2018-10-17T15:30:58.638Z,11.37
2018-10-17T15:33:25.835Z,11.13
2018-10-17T15:35:53.053Z,12.70
2018-10-17T15:38:20.245Z,12.93
2018-10-17T15:40:47.439Z,11.80
2018-10-17T15:43:14.803Z,11.07
2018-10-17T15:45:41.911Z,13.23
2018-10-17T15:48:09.137Z,13.60
2018-10-17T15:50:36.503Z,14.80
2018-10-17T15:53:03.748Z,13.57
2018-10-17T15:55:30.894Z,13.60
2018-10-17T15:57:58.102Z,14.13
2018-10-17T16:00:25.292Z,13.13
2018-10-17T16:02:52.572Z,13.18
2018-10-17T16:05:19.855Z,14.53
2018-10-17T16:07:47.072Z,16.17
2018-10-17T16:10:14.283Z,14.68
2018-10-17T16:12:41.496Z,16.00
2018-10-17T16:15:09.215Z,15.25
2018-10-17T16:17:36.532Z,13.95
2018-10-17T16:20:03.897Z,14.50
2018-10-17T16:22:31.137Z,14.15
2018-10-17T16:24:58.367Z,12.47
2018-10-17T16:27:25.555Z,14.28
2018-10-17T16:29:52.733Z,14.20
2018-10-17T16:32:20.041Z,15.80
2018-10-17T16:34:47.235Z,20.95
2018-10-17T16:37:14.419Z,19.77
2018-10-17T16:39:41.624Z,18.57
2018-10-17T16:42:08.842Z,18.35
2018-10-17T16:44:36.018Z,16.73
2018-10-17T16:47:03.212Z,16.70
2018-10-17T16:49:30.432Z,15.45
2018-10-17T16:51:57.635Z,15.43
2018-10-17T16:54:24.830Z,14.75
2018-10-17T16:56:52.032Z,16.40
2018-10-17T16:59:19.334Z,20.95
2018-10-17T17:01:46.506Z,19.15
2018-10-17T17:04:13.744Z,16.57
2018-10-17T17:06:40.923Z,16.87
2018-10-17T17:09:09.049Z,14.50
2018-10-17T17:11:36.174Z,14.53
2018-10-17T17:14:03.399Z,13.15
2018-10-17T17:16:30.634Z,14.58
2018-10-17T17:18:57.787Z,15.95
2018-10-17T17:21:24.992Z,16.25
2018-10-17T17:23:52.319Z,14.60
2018-10-17T17:26:19.492Z,15.85
2018-10-17T17:28:46.681Z,17.55
2018-10-17T17:31:13.884Z,17.07
2018-10-17T17:33:41.095Z,16.55
2018-10-17T17:36:08.335Z,16.12
2018-10-17T17:38:35.485Z,18.10
2018-10-17T17:41:02.719Z,15.43
2018-10-17T17:43:29.923Z,14.50
2018-10-17T17:45:57.134Z,16.40
2018-10-17T17:48:24.448Z,16.85
2018-10-17T17:50:51.631Z,15.95
2018-10-17T17:53:18.810Z,17.70
2018-10-17T17:55:45.994Z,16.95
2018-10-17T17:58:13.257Z,15.05
2018-10-17T18:00:40.390Z,15.65
2018-10-17T18:03:07.756Z,16.32
2018-10-17T18:05:35.068Z,15.15
2018-10-17T18:08:02.569Z,16.65
2018-10-17T18:10:29.874Z,16.45
2018-10-17T18:12:57.175Z,17.57
2018-10-17T18:15:24.427Z,18.27
2018-10-17T18:17:51.630Z,17.87
2018-10-17T18:20:18.852Z,17.70
2018-10-17T18:22:46.032Z,19.17
2018-10-17T18:25:13.243Z,19.32
2018-10-17T18:27:42.266Z,18.62
2018-10-17T18:30:09.220Z,20.45
2018-10-17T18:32:36.461Z,22.77
2018-10-17T18:35:03.672Z,22.60
2018-10-17T18:37:30.871Z,24.30
2018-10-17T18:39:58.070Z,21.70
2018-10-17T18:42:25.291Z,23.22
2018-10-17T18:44:52.509Z,24.37
2018-10-17T18:47:19.702Z,21.70
2018-10-17T18:49:46.910Z,22.52
2018-10-17T18:52:14.103Z,22.45
2018-10-17T18:54:41.291Z,22.10
2018-10-17T18:57:08.550Z,23.15
2018-10-17T18:59:35.700Z,21.10
2018-10-17T19:02:02.887Z,21.90
2018-10-17T19:04:30.091Z,20.57
2018-10-17T19:06:57.280Z,21.48
2018-10-17T19:09:24.589Z,21.80
2018-10-17T19:11:51.872Z,22.58
2018-10-17T19:14:19.078Z,19.90
2018-10-17T19:16:46.295Z,17.70
2018-10-17T19:19:13.506Z,18.70
2018-10-17T19:21:40.700Z,19.40
2018-10-17T19:24:07.898Z,20.35
2018-10-17T19:26:35.118Z,19.25
2018-10-17T19:29:02.298Z,21.48
2018-10-17T19:31:29.508Z,20.08
2018-10-17T19:33:56.694Z,20.90
2018-10-17T19:36:23.897Z,21.70
2018-10-17T19:38:51.280Z,23.83
2018-10-17T19:41:18.461Z,22.13
2018-10-17T19:43:45.667Z,23.12
2018-10-17T19:46:12.867Z,21.75
2018-10-17T19:48:40.064Z,22.75
2018-10-17T19:51:07.286Z,23.98
2018-10-17T19:53:34.479Z,23.22
2018-10-17T19:56:01.764Z,23.05
2018-10-17T19:58:28.907Z,23.38
2018-10-17T20:00:56.106Z,22.58
2018-10-17T20:03:23.328Z,23.92
2018-10-17T20:05:50.566Z,25.10
2018-10-17T20:08:17.754Z,22.00
2018-10-17T20:10:44.967Z,23.20
2018-10-17T20:13:12.179Z,21.70
2018-10-17T20:15:39.373Z,23.67
2018-10-17T20:18:06.572Z,24.37
2018-10-17T20:20:33.804Z,25.82
2018-10-17T20:23:01.032Z,24.52
2018-10-17T20:25:28.261Z,21.90
2018-10-17T20:27:55.482Z,23.30
2018-10-17T20:30:22.676Z,24.82
2018-10-17T20:32:49.872Z,24.30
2018-10-17T20:35:17.183Z,24.45
2018-10-17T20:37:44.308Z,23.75
2018-10-17T20:40:11.503Z,24.02
2018-10-17T20:42:38.715Z,24.40
2018-10-17T20:45:06.082Z,24.55
2018-10-17T20:47:33.266Z,23.27
2018-10-17T20:50:00.543Z,24.10
2018-10-17T20:52:27.809Z,22.62
2018-10-17T20:54:54.915Z,23.73
2018-10-17T20:57:22.140Z,23.62
2018-10-17T20:59:49.331Z,24.32
2018-10-17T21:02:16.578Z,24.80
2018-10-17T21:04:43.771Z,25.85
2018-10-17T21:07:10.957Z,26.48
2018-10-17T21:09:38.171Z,24.05
2018-10-17T21:12:05.371Z,23.32
2018-10-17T21:14:32.564Z,23.95
2018-10-17T21:16:59.784Z,23.15
2018-10-17T21:19:26.984Z,23.75
2018-10-17T21:21:54.186Z,22.77
2018-10-17T21:24:21.395Z,22.05
2018-10-17T21:26:48.680Z,22.58
2018-10-17T21:29:15.814Z,25.43
2018-10-17T21:31:43.020Z,25.02
2018-10-17T21:34:10.208Z,24.60
2018-10-17T21:36:37.406Z,24.18
2018-10-17T21:39:06.974Z,23.30
2018-10-17T21:41:34.279Z,22.17
2018-10-17T21:44:01.612Z,21.55
2018-10-17T21:46:28.817Z,23.15
2018-10-17T21:48:56.024Z,23.92
2018-10-17T21:51:23.211Z,22.25
2018-10-17T21:53:50.432Z,22.90
2018-10-17T21:56:17.689Z,20.82
2018-10-17T21:58:44.884Z,23.87
2018-10-17T22:01:12.093Z,26.02
2018-10-17T22:03:39.295Z,24.35
2018-10-17T22:06:06.490Z,21.27
2018-10-17T22:08:33.699Z,23.90
2018-10-17T22:11:00.919Z,24.87
2018-10-17T22:13:28.205Z,23.15
2018-10-17T22:15:55.415Z,23.70
2018-10-17T22:18:22.595Z,23.52
2018-10-17T22:20:49.786Z,24.35
2018-10-17T22:23:16.997Z,24.45
2018-10-17T22:25:44.178Z,25.15
2018-10-17T22:28:11.366Z,27.20
2018-10-17T22:30:38.570Z,26.40
2018-10-17T22:33:05.742Z,25.85
2018-10-17T22:35:32.922Z,25.20
2018-10-17T22:38:00.153Z,28.17
2018-10-17T22:40:27.360Z,26.30
2018-10-17T22:42:54.550Z,26.10
2018-10-17T22:45:21.807Z,26.02
2018-10-17T22:47:49.001Z,26.60
2018-10-17T22:50:16.254Z,26.02
2018-10-17T22:52:43.406Z,26.42
2018-10-17T22:55:10.657Z,25.77
2018-10-17T22:57:37.817Z,25.27
2018-10-17T23:00:05.744Z,25.45
2018-10-17T23:02:32.960Z,26.97
2018-10-17T23:05:00.156Z,25.80
2018-10-17T23:07:27.441Z,25.60
2018-10-17T23:09:54.663Z,24.43
2018-10-17T23:12:21.850Z,26.00
2018-10-17T23:14:49.040Z,25.55
2018-10-17T23:17:16.243Z,28.30
2018-10-17T23:19:43.432Z,26.68
2018-10-17T23:22:10.640Z,27.10
2018-10-17T23:24:37.863Z,27.93
2018-10-17T23:27:05.066Z,28.80
2018-10-17T23:29:32.255Z,27.30
2018-10-17T23:31:59.481Z,26.75
2018-10-17T23:34:26.659Z,26.87
2018-10-17T23:36:53.845Z,26.10
2018-10-17T23:39:21.056Z,28.25
2018-10-17T23:41:48.270Z,26.70
2018-10-17T23:44:15.509Z,24.43
2018-10-17T23:46:42.692Z,28.17
2018-10-17T23:49:09.880Z,26.95
2018-10-17T23:51:37.079Z,27.65
2018-10-17T23:54:04.319Z,27.52
2018-10-17T23:56:31.503Z,25.70
2018-10-17T23:58:58.687Z,26.55
